Providence, Rhode Island
Traffic Map
Current Weather Conditions
Providence, Rhode Island
Overcast
Overcast
78°
Feels Like: 79°
Wind Chill: 78° Ceiling: 6500
Heat Index: 79° Visibility: 10mi
Dew Point: 52° Wind: 6mph
Humidity: 40% Direction: 330° (NNW)
Pressure: 30.13in Gusts: 0mph
Raw Report DataKPVD 281851Z 33005KT 10SM OVC065 26/11 A3013 RMK AO2 SLP201 T02560111
Traffic Incident Summary
Active as of:
Severity:
Category:
InformationThere was an issue retrieving the traffic information for this location. Please try a different location or try again shortly.
Advertisements
Track Severe Weather on mobile